sensor_id;sensor_type;location;lat;lon;timestamp;temperature;humidity
1015;DHT22;8170;48.118;11.628;2023-02-11T00:07:04;-1.90;99.90
1015;DHT22;8170;48.118;11.628;2023-02-11T00:36:46;-2.30;99.90
1015;DHT22;8170;48.118;11.628;2023-02-11T00:42:50;-2.30;99.90
1015;DHT22;8170;48.118;11.628;2023-02-11T00:43:11;-2.40;99.90
1015;DHT22;8170;48.118;11.628;2023-02-11T00:47:36;-2.50;99.90
1015;DHT22;8170;48.118;11.628;2023-02-11T03:41:17;-3.20;99.90
1015;DHT22;8170;48.118;11.628;2023-02-11T03:51:25;-3.20;99.90
1015;DHT22;8170;48.118;11.628;2023-02-11T05:14:33;-3.10;99.90
1015;DHT22;8170;48.118;11.628;2023-02-11T05:16:34;-3.10;99.90
1015;DHT22;8170;48.118;11.628;2023-02-11T05:18:57;-3.10;99.90
1015;DHT22;8170;48.118;11.628;2023-02-11T05:21:20;-3.10;99.90
1015;DHT22;8170;48.118;11.628;2023-02-11T05:23:47;-3.10;99.90
1015;DHT22;8170;48.118;11.628;2023-02-11T05:49:59;-2.50;99.90
1015;DHT22;8170;48.118;11.628;2023-02-11T05:52:00;-2.40;99.90
1015;DHT22;8170;48.118;11.628;2023-02-11T05:59:18;-2.30;99.90
1015;DHT22;8170;48.118;11.628;2023-02-11T06:01:23;-2.20;99.90
1015;DHT22;8170;48.118;11.628;2023-02-11T06:03:18;-2.20;99.90
1015;DHT22;8170;48.118;11.628;2023-02-11T06:07:27;-2.10;99.90
1015;DHT22;8170;48.118;11.628;2023-02-11T06:08:58;-2.10;99.90
1015;DHT22;8170;48.118;11.628;2023-02-11T06:10:54;-2.10;99.90
1015;DHT22;8170;48.118;11.628;2023-02-11T06:12:19;-2.10;99.90
1015;DHT22;8170;48.118;11.628;2023-02-11T06:14:07;-2.00;99.90
1015;DHT22;8170;48.118;11.628;2023-02-11T06:18:41;-2.00;99.90
1015;DHT22;8170;48.118;11.628;2023-02-11T06:20:10;-1.90;99.90
1015;DHT22;8170;48.118;11.628;2023-02-11T06:22:13;-1.90;99.90
1015;DHT22;8170;48.118;11.628;2023-02-11T06:23:47;-1.90;99.90
1015;DHT22;8170;48.118;11.628;2023-02-11T06:25:47;-1.90;99.90
1015;DHT22;8170;48.118;11.628;2023-02-11T06:28:03;-1.90;99.90
1015;DHT22;8170;48.118;11.628;2023-02-11T06:30:13;-1.90;99.90
1015;DHT22;8170;48.118;11.628;2023-02-11T06:35:17;-1.80;99.90
1015;DHT22;8170;48.118;11.628;2023-02-11T06:39:59;-1.70;99.90
1015;DHT22;8170;48.118;11.628;2023-02-11T06:44:30;-1.70;99.90
1015;DHT22;8170;48.118;11.628;2023-02-11T06:46:47;-1.70;99.90
1015;DHT22;8170;48.118;11.628;2023-02-11T06:48:57;-1.70;99.90
1015;DHT22;8170;48.118;11.628;2023-02-11T06:51:35;-1.70;99.90
1015;DHT22;8170;48.118;11.628;2023-02-11T06:54:00;-1.60;99.90
1015;DHT22;8170;48.118;11.628;2023-02-11T06:56:44;-1.50;99.90
1015;DHT22;8170;48.118;11.628;2023-02-11T07:04:18;-1.30;99.90
1015;DHT22;8170;48.118;11.628;2023-02-11T07:05:18;-1.20;99.90
1015;DHT22;8170;48.118;11.628;2023-02-11T07:07:51;-1.10;99.90
1015;DHT22;8170;48.118;11.628;2023-02-11T07:10:32;-1.00;99.90
1015;DHT22;8170;48.118;11.628;2023-02-11T07:15:35;-1.00;99.90
1015;DHT22;8170;48.118;11.628;2023-02-11T07:18:16;-1.00;99.90
1015;DHT22;8170;48.118;11.628;2023-02-11T07:26:11;-0.50;99.90
1015;DHT22;8170;48.118;11.628;2023-02-11T07:28:04;-0.50;99.90
1015;DHT22;8170;48.118;11.628;2023-02-11T07:31:04;-0.40;99.90
1015;DHT22;8170;48.118;11.628;2023-02-11T07:33:43;-0.40;99.90
1015;DHT22;8170;48.118;11.628;2023-02-11T07:40:09;-0.30;99.90
1015;DHT22;8170;48.118;11.628;2023-02-11T07:42:41;-0.30;99.90
1015;DHT22;8170;48.118;11.628;2023-02-11T07:43:48;-0.20;99.90
1015;DHT22;8170;48.118;11.628;2023-02-11T07:45:31;-0.20;99.90
1015;DHT22;8170;48.118;11.628;2023-02-11T07:47:25;-0.30;99.90
1015;DHT22;8170;48.118;11.628;2023-02-11T07:49:10;-0.20;99.90
1015;DHT22;8170;48.118;11.628;2023-02-11T07:51:23;-0.10;99.90
1015;DHT22;8170;48.118;11.628;2023-02-11T07:53:08;-0.30;99.90
1015;DHT22;8170;48.118;11.628;2023-02-11T07:55:06;-0.40;99.90
1015;DHT22;8170;48.118;11.628;2023-02-11T07:57:59;-0.30;99.90
1015;DHT22;8170;48.118;11.628;2023-02-11T08:03:20;-0.10;99.90
1015;DHT22;8170;48.118;11.628;2023-02-11T08:07:27;0.30;99.90
1015;DHT22;8170;48.118;11.628;2023-02-11T08:12:38;0.50;99.90
1015;DHT22;8170;48.118;11.628;2023-02-11T08:21:38;1.10;99.90
1015;DHT22;8170;48.118;11.628;2023-02-11T09:10:38;3.10;99.90
1015;DHT22;8170;48.118;11.628;2023-02-11T09:11:43;3.30;99.90
1015;DHT22;8170;48.118;11.628;2023-02-11T09:12:47;3.40;99.90
1015;DHT22;8170;48.118;11.628;2023-02-11T09:13:50;3.40;99.90
1015;DHT22;8170;48.118;11.628;2023-02-11T09:14:55;3.30;99.90
1015;DHT22;8170;48.118;11.628;2023-02-11T09:16:01;3.40;99.90
1015;DHT22;8170;48.118;11.628;2023-02-11T09:17:04;3.40;99.90
1015;DHT22;8170;48.118;11.628;2023-02-11T09:18:08;3.40;99.90
1015;DHT22;8170;48.118;11.628;2023-02-11T09:19:11;3.40;99.90
1015;DHT22;8170;48.118;11.628;2023-02-11T09:20:15;3.40;99.90
1015;DHT22;8170;48.118;11.628;2023-02-11T09:21:19;3.30;99.90
1015;DHT22;8170;48.118;11.628;2023-02-11T09:22:23;3.30;99.90
1015;DHT22;8170;48.118;11.628;2023-02-11T09:23:27;3.20;99.90
1015;DHT22;8170;48.118;11.628;2023-02-11T09:24:32;3.30;99.90
1015;DHT22;8170;48.118;11.628;2023-02-11T09:25:39;3.30;99.90
1015;DHT22;8170;48.118;11.628;2023-02-11T09:26:45;3.30;99.90
1015;DHT22;8170;48.118;11.628;2023-02-11T09:27:49;3.30;99.90
1015;DHT22;8170;48.118;11.628;2023-02-11T09:28:54;3.30;99.90
1015;DHT22;8170;48.118;11.628;2023-02-11T09:29:58;3.30;99.90
1015;DHT22;8170;48.118;11.628;2023-02-11T09:31:06;3.30;99.90
1015;DHT22;8170;48.118;11.628;2023-02-11T09:32:10;3.30;99.90
1015;DHT22;8170;48.118;11.628;2023-02-11T09:33:16;3.30;99.90
1015;DHT22;8170;48.118;11.628;2023-02-11T09:34:18;3.30;99.90
1015;DHT22;8170;48.118;11.628;2023-02-11T09:35:22;3.30;99.90
1015;DHT22;8170;48.118;11.628;2023-02-11T09:36:27;3.40;99.90
1015;DHT22;8170;48.118;11.628;2023-02-11T09:37:34;3.40;99.90
1015;DHT22;8170;48.118;11.628;2023-02-11T09:38:38;3.50;99.90
1015;DHT22;8170;48.118;11.628;2023-02-11T09:39:42;3.50;99.90
1015;DHT22;8170;48.118;11.628;2023-02-11T09:40:48;3.60;99.90
1015;DHT22;8170;48.118;11.628;2023-02-11T09:42:23;3.60;99.90
1015;DHT22;8170;48.118;11.628;2023-02-11T09:43:35;3.60;99.90
1015;DHT22;8170;48.118;11.628;2023-02-11T09:44:43;3.60;99.90
1015;DHT22;8170;48.118;11.628;2023-02-11T09:45:48;3.70;99.90
1015;DHT22;8170;48.118;11.628;2023-02-11T09:46:54;3.70;99.90
1015;DHT22;8170;48.118;11.628;2023-02-11T09:48:04;3.80;99.90
1015;DHT22;8170;48.118;11.628;2023-02-11T09:49:17;3.80;99.90
1015;DHT22;8170;48.118;11.628;2023-02-11T09:50:24;3.80;99.90
1015;DHT22;8170;48.118;11.628;2023-02-11T09:51:37;3.80;99.90
1015;DHT22;8170;48.118;11.628;2023-02-11T09:52:47;3.70;99.90
1015;DHT22;8170;48.118;11.628;2023-02-11T09:53:56;3.70;99.90
1015;DHT22;8170;48.118;11.628;2023-02-11T09:55:05;3.80;99.90
1015;DHT22;8170;48.118;11.628;2023-02-11T09:56:15;3.70;99.90
1015;DHT22;8170;48.118;11.628;2023-02-11T09:57:24;3.70;99.90
1015;DHT22;8170;48.118;11.628;2023-02-11T09:58:37;3.70;99.90
1015;DHT22;8170;48.118;11.628;2023-02-11T09:59:42;3.60;99.90
1015;DHT22;8170;48.118;11.628;2023-02-11T10:00:55;3.60;99.90
1015;DHT22;8170;48.118;11.628;2023-02-11T10:02:08;3.60;99.90
1015;DHT22;8170;48.118;11.628;2023-02-11T10:03:38;3.70;99.90
1015;DHT22;8170;48.118;11.628;2023-02-11T10:05:08;3.90;99.90
1015;DHT22;8170;48.118;11.628;2023-02-11T10:06:35;4.00;99.90
1015;DHT22;8170;48.118;11.628;2023-02-11T10:07:47;4.20;99.90
1015;DHT22;8170;48.118;11.628;2023-02-11T10:09:00;4.30;99.30
1015;DHT22;8170;48.118;11.628;2023-02-11T10:10:14;4.50;99.00
1015;DHT22;8170;48.118;11.628;2023-02-11T10:11:27;4.60;98.10
1015;DHT22;8170;48.118;11.628;2023-02-11T10:12:50;4.70;98.50
1015;DHT22;8170;48.118;11.628;2023-02-11T10:14:10;4.90;97.60
1015;DHT22;8170;48.118;11.628;2023-02-11T10:15:25;5.00;97.30
1015;DHT22;8170;48.118;11.628;2023-02-11T10:16:46;5.10;97.10
1015;DHT22;8170;48.118;11.628;2023-02-11T10:18:09;5.10;96.20
1015;DHT22;8170;48.118;11.628;2023-02-11T10:19:27;5.10;96.50
1015;DHT22;8170;48.118;11.628;2023-02-11T10:20:43;5.10;96.30
1015;DHT22;8170;48.118;11.628;2023-02-11T10:22:03;5.20;96.20
1015;DHT22;8170;48.118;11.628;2023-02-11T10:23:14;5.20;96.20
1015;DHT22;8170;48.118;11.628;2023-02-11T10:24:18;5.40;95.90
1015;DHT22;8170;48.118;11.628;2023-02-11T10:25:24;5.40;95.80
1015;DHT22;8170;48.118;11.628;2023-02-11T10:26:29;5.50;95.80
1015;DHT22;8170;48.118;11.628;2023-02-11T10:27:36;5.40;95.40
1015;DHT22;8170;48.118;11.628;2023-02-11T10:28:43;5.30;95.60
1015;DHT22;8170;48.118;11.628;2023-02-11T10:29:50;5.20;95.70
1015;DHT22;8170;48.118;11.628;2023-02-11T10:30:57;5.20;95.90
1015;DHT22;8170;48.118;11.628;2023-02-11T10:32:05;5.30;95.70
1015;DHT22;8170;48.118;11.628;2023-02-11T10:33:21;5.40;95.60
1015;DHT22;8170;48.118;11.628;2023-02-11T10:34:25;5.30;95.40
1015;DHT22;8170;48.118;11.628;2023-02-11T10:35:29;5.30;95.40
1015;DHT22;8170;48.118;11.628;2023-02-11T10:36:35;5.40;95.60
1015;DHT22;8170;48.118;11.628;2023-02-11T10:37:40;5.40;95.50
1015;DHT22;8170;48.118;11.628;2023-02-11T10:38:46;5.40;95.50
1015;DHT22;8170;48.118;11.628;2023-02-11T10:39:49;5.40;95.40
1015;DHT22;8170;48.118;11.628;2023-02-11T10:42:11;5.10;95.40
1015;DHT22;8170;48.118;11.628;2023-02-11T10:43:22;5.00;96.00
1015;DHT22;8170;48.118;11.628;2023-02-11T10:44:32;4.90;96.00
1015;DHT22;8170;48.118;11.628;2023-02-11T10:45:38;4.90;96.30
1015;DHT22;8170;48.118;11.628;2023-02-11T10:46:46;5.00;96.50
1015;DHT22;8170;48.118;11.628;2023-02-11T10:47:49;5.10;96.40
1015;DHT22;8170;48.118;11.628;2023-02-11T10:48:53;5.30;96.30
1015;DHT22;8170;48.118;11.628;2023-02-11T10:50:00;5.40;96.00
1015;DHT22;8170;48.118;11.628;2023-02-11T10:51:17;5.60;96.20
1015;DHT22;8170;48.118;11.628;2023-02-11T10:52:31;5.80;95.80
1015;DHT22;8170;48.118;11.628;2023-02-11T10:53:34;5.90;95.30
1015;DHT22;8170;48.118;11.628;2023-02-11T10:54:37;5.90;95.00
1015;DHT22;8170;48.118;11.628;2023-02-11T10:55:49;5.80;95.10
1015;DHT22;8170;48.118;11.628;2023-02-11T10:56:58;5.80;94.90
1015;DHT22;8170;48.118;11.628;2023-02-11T10:58:04;5.80;95.40
1015;DHT22;8170;48.118;11.628;2023-02-11T10:59:14;5.80;94.80
1015;DHT22;8170;48.118;11.628;2023-02-11T11:00:30;5.70;94.90
1015;DHT22;8170;48.118;11.628;2023-02-11T11:01:44;5.80;95.40
1015;DHT22;8170;48.118;11.628;2023-02-11T11:02:54;6.00;95.20
1015;DHT22;8170;48.118;11.628;2023-02-11T11:03:58;6.10;95.30
1015;DHT22;8170;48.118;11.628;2023-02-11T11:05:03;6.20;94.80
1015;DHT22;8170;48.118;11.628;2023-02-11T11:06:08;6.30;94.90
1015;DHT22;8170;48.118;11.628;2023-02-11T11:07:17;6.50;94.80
1015;DHT22;8170;48.118;11.628;2023-02-11T11:08:20;6.50;94.30
1015;DHT22;8170;48.118;11.628;2023-02-11T11:09:27;6.50;94.50
1015;DHT22;8170;48.118;11.628;2023-02-11T11:10:36;6.60;94.70
1015;DHT22;8170;48.118;11.628;2023-02-11T11:11:51;6.70;94.10
1015;DHT22;8170;48.118;11.628;2023-02-11T11:12:54;6.60;93.30
1015;DHT22;8170;48.118;11.628;2023-02-11T11:13:59;6.50;93.70
1015;DHT22;8170;48.118;11.628;2023-02-11T11:15:17;6.40;93.50
1015;DHT22;8170;48.118;11.628;2023-02-11T11:16:24;6.40;93.00
1015;DHT22;8170;48.118;11.628;2023-02-11T11:17:28;6.30;92.80
1015;DHT22;8170;48.118;11.628;2023-02-11T11:18:31;6.30;93.30
1015;DHT22;8170;48.118;11.628;2023-02-11T11:19:35;6.30;93.50
1015;DHT22;8170;48.118;11.628;2023-02-11T11:20:51;6.50;93.40
1015;DHT22;8170;48.118;11.628;2023-02-11T11:21:56;6.40;93.20
1015;DHT22;8170;48.118;11.628;2023-02-11T11:23:17;6.30;93.00
1015;DHT22;8170;48.118;11.628;2023-02-11T11:24:28;6.30;93.20
1015;DHT22;8170;48.118;11.628;2023-02-11T11:25:37;6.30;93.10
1015;DHT22;8170;48.118;11.628;2023-02-11T11:26:42;6.40;93.50
1015;DHT22;8170;48.118;11.628;2023-02-11T11:27:48;6.40;93.40
1015;DHT22;8170;48.118;11.628;2023-02-11T11:28:55;6.30;93.20
1015;DHT22;8170;48.118;11.628;2023-02-11T11:30:01;6.30;93.90
1015;DHT22;8170;48.118;11.628;2023-02-11T11:31:05;6.50;93.40
1015;DHT22;8170;48.118;11.628;2023-02-11T11:32:19;6.60;92.80
1015;DHT22;8170;48.118;11.628;2023-02-11T11:33:27;6.60;93.20
1015;DHT22;8170;48.118;11.628;2023-02-11T11:34:32;6.70;92.90
1015;DHT22;8170;48.118;11.628;2023-02-11T11:35:38;6.80;92.10
1015;DHT22;8170;48.118;11.628;2023-02-11T11:36:43;6.70;91.70
1015;DHT22;8170;48.118;11.628;2023-02-11T11:37:52;6.70;91.80
1015;DHT22;8170;48.118;11.628;2023-02-11T11:38:57;6.70;91.60
1015;DHT22;8170;48.118;11.628;2023-02-11T11:40:08;6.60;91.70
1015;DHT22;8170;48.118;11.628;2023-02-11T11:41:21;6.70;91.60
1015;DHT22;8170;48.118;11.628;2023-02-11T11:42:28;6.50;91.60
1015;DHT22;8170;48.118;11.628;2023-02-11T11:43:31;6.60;92.20
1015;DHT22;8170;48.118;11.628;2023-02-11T11:44:34;6.70;92.20
1015;DHT22;8170;48.118;11.628;2023-02-11T11:45:52;6.80;91.90
1015;DHT22;8170;48.118;11.628;2023-02-11T11:47:14;6.90;92.10
1015;DHT22;8170;48.118;11.628;2023-02-11T11:48:23;7.00;91.30
1015;DHT22;8170;48.118;11.628;2023-02-11T11:49:31;6.90;92.00
1015;DHT22;8170;48.118;11.628;2023-02-11T11:50:39;6.80;91.60
1015;DHT22;8170;48.118;11.628;2023-02-11T11:51:54;6.90;91.70
1015;DHT22;8170;48.118;11.628;2023-02-11T11:53:08;6.90;91.80
1015;DHT22;8170;48.118;11.628;2023-02-11T11:55:27;6.90;91.10
1015;DHT22;8170;48.118;11.628;2023-02-11T11:57:09;7.20;91.50
1015;DHT22;8170;48.118;11.628;2023-02-11T11:58:30;7.40;91.10
1015;DHT22;8170;48.118;11.628;2023-02-11T11:59:34;7.50;90.30
1015;DHT22;8170;48.118;11.628;2023-02-11T12:00:47;7.50;90.30
1015;DHT22;8170;48.118;11.628;2023-02-11T12:02:10;7.50;90.10
1015;DHT22;8170;48.118;11.628;2023-02-11T12:04:59;7.30;89.80
1015;DHT22;8170;48.118;11.628;2023-02-11T12:06:20;7.20;89.00
1015;DHT22;8170;48.118;11.628;2023-02-11T12:07:40;7.10;89.40
1015;DHT22;8170;48.118;11.628;2023-02-11T12:08:54;7.20;89.50
1015;DHT22;8170;48.118;11.628;2023-02-11T12:10:22;7.30;89.90
1015;DHT22;8170;48.118;11.628;2023-02-11T12:11:35;7.10;88.00
1015;DHT22;8170;48.118;11.628;2023-02-11T12:12:47;7.00;89.20
1015;DHT22;8170;48.118;11.628;2023-02-11T12:14:07;7.00;88.80
1015;DHT22;8170;48.118;11.628;2023-02-11T12:15:22;6.90;88.40
1015;DHT22;8170;48.118;11.628;2023-02-11T12:16:39;6.90;88.20
1015;DHT22;8170;48.118;11.628;2023-02-11T12:17:55;6.90;87.60
1015;DHT22;8170;48.118;11.628;2023-02-11T12:19:29;7.00;88.10
1015;DHT22;8170;48.118;11.628;2023-02-11T12:20:48;7.10;87.80
1015;DHT22;8170;48.118;11.628;2023-02-11T12:22:02;7.20;88.10
1015;DHT22;8170;48.118;11.628;2023-02-11T12:23:29;7.20;86.60
1015;DHT22;8170;48.118;11.628;2023-02-11T12:24:46;7.20;87.00
1015;DHT22;8170;48.118;11.628;2023-02-11T12:25:58;7.30;86.10
1015;DHT22;8170;48.118;11.628;2023-02-11T12:27:07;7.30;85.20
1015;DHT22;8170;48.118;11.628;2023-02-11T12:28:23;7.20;85.70
1015;DHT22;8170;48.118;11.628;2023-02-11T12:29:36;7.10;85.10
1015;DHT22;8170;48.118;11.628;2023-02-11T12:30:51;7.10;85.00
1015;DHT22;8170;48.118;11.628;2023-02-11T12:32:08;7.00;85.20
1015;DHT22;8170;48.118;11.628;2023-02-11T12:33:20;7.00;84.70
1015;DHT22;8170;48.118;11.628;2023-02-11T12:34:45;7.00;85.20
1015;DHT22;8170;48.118;11.628;2023-02-11T12:35:55;7.00;84.80
1015;DHT22;8170;48.118;11.628;2023-02-11T12:37:04;7.20;85.50
1015;DHT22;8170;48.118;11.628;2023-02-11T12:38:28;7.20;82.50
1015;DHT22;8170;48.118;11.628;2023-02-11T12:39:49;7.20;80.90
1015;DHT22;8170;48.118;11.628;2023-02-11T12:41:01;7.30;81.80
1015;DHT22;8170;48.118;11.628;2023-02-11T12:42:26;7.30;81.10
1015;DHT22;8170;48.118;11.628;2023-02-11T12:43:53;7.40;79.10
1015;DHT22;8170;48.118;11.628;2023-02-11T12:45:18;7.50;77.30
1015;DHT22;8170;48.118;11.628;2023-02-11T12:46:37;7.50;78.40
1015;DHT22;8170;48.118;11.628;2023-02-11T12:47:56;7.60;76.40
1015;DHT22;8170;48.118;11.628;2023-02-11T12:49:21;7.50;76.10
1015;DHT22;8170;48.118;11.628;2023-02-11T12:50:34;7.30;75.70
1015;DHT22;8170;48.118;11.628;2023-02-11T12:52:04;7.20;76.40
1015;DHT22;8170;48.118;11.628;2023-02-11T12:53:30;7.20;76.60
1015;DHT22;8170;48.118;11.628;2023-02-11T12:54:46;7.20;76.90
1015;DHT22;8170;48.118;11.628;2023-02-11T12:55:56;7.10;76.40
1015;DHT22;8170;48.118;11.628;2023-02-11T12:57:10;7.20;77.00
1015;DHT22;8170;48.118;11.628;2023-02-11T12:58:19;7.10;76.40
1015;DHT22;8170;48.118;11.628;2023-02-11T12:59:45;7.20;77.60
1015;DHT22;8170;48.118;11.628;2023-02-11T13:00:55;7.20;77.40
1015;DHT22;8170;48.118;11.628;2023-02-11T13:02:08;7.30;77.20
1015;DHT22;8170;48.118;11.628;2023-02-11T13:03:19;7.30;76.30
1015;DHT22;8170;48.118;11.628;2023-02-11T13:04:30;7.30;76.50
1015;DHT22;8170;48.118;11.628;2023-02-11T13:05:38;7.30;76.70
1015;DHT22;8170;48.118;11.628;2023-02-11T13:06:45;7.30;76.60
1015;DHT22;8170;48.118;11.628;2023-02-11T13:07:53;7.30;75.70
1015;DHT22;8170;48.118;11.628;2023-02-11T13:09:01;7.20;77.60
1015;DHT22;8170;48.118;11.628;2023-02-11T13:10:23;7.30;77.10
1015;DHT22;8170;48.118;11.628;2023-02-11T13:11:32;7.40;76.80
1015;DHT22;8170;48.118;11.628;2023-02-11T13:12:36;7.30;76.40
1015;DHT22;8170;48.118;11.628;2023-02-11T13:14:03;7.20;77.20
1015;DHT22;8170;48.118;11.628;2023-02-11T13:15:13;7.10;77.00
1015;DHT22;8170;48.118;11.628;2023-02-11T13:16:21;7.10;77.00
1015;DHT22;8170;48.118;11.628;2023-02-11T13:17:31;7.00;77.60
1015;DHT22;8170;48.118;11.628;2023-02-11T13:18:44;6.90;77.30
1015;DHT22;8170;48.118;11.628;2023-02-11T13:19:53;6.80;77.50
1015;DHT22;8170;48.118;11.628;2023-02-11T13:21:13;6.80;78.40
1015;DHT22;8170;48.118;11.628;2023-02-11T13:22:25;6.80;78.30
1015;DHT22;8170;48.118;11.628;2023-02-11T13:23:35;6.70;78.70
1015;DHT22;8170;48.118;11.628;2023-02-11T13:24:42;6.70;78.70
1015;DHT22;8170;48.118;11.628;2023-02-11T13:25:51;6.60;78.80
1015;DHT22;8170;48.118;11.628;2023-02-11T13:27:00;6.70;79.40
1015;DHT22;8170;48.118;11.628;2023-02-11T13:28:19;6.80;79.30
1015;DHT22;8170;48.118;11.628;2023-02-11T13:29:38;6.90;79.60
1015;DHT22;8170;48.118;11.628;2023-02-11T13:30:45;7.10;79.60
1015;DHT22;8170;48.118;11.628;2023-02-11T13:31:54;7.20;79.90
1015;DHT22;8170;48.118;11.628;2023-02-11T13:34:25;7.50;79.60
1015;DHT22;8170;48.118;11.628;2023-02-11T13:36:09;7.60;78.40
1015;DHT22;8170;48.118;11.628;2023-02-11T13:37:20;7.70;77.90
1015;DHT22;8170;48.118;11.628;2023-02-11T13:38:26;7.90;79.00
1015;DHT22;8170;48.118;11.628;2023-02-11T13:39:28;8.00;78.50
1015;DHT22;8170;48.118;11.628;2023-02-11T13:40:34;8.10;77.60
1015;DHT22;8170;48.118;11.628;2023-02-11T13:41:39;8.20;77.70
1015;DHT22;8170;48.118;11.628;2023-02-11T13:42:48;8.20;77.40
1015;DHT22;8170;48.118;11.628;2023-02-11T13:44:04;8.30;77.30
1015;DHT22;8170;48.118;11.628;2023-02-11T13:45:16;8.30;77.40
1015;DHT22;8170;48.118;11.628;2023-02-11T13:46:23;8.30;76.20
1015;DHT22;8170;48.118;11.628;2023-02-11T13:47:29;8.30;76.00
1015;DHT22;8170;48.118;11.628;2023-02-11T13:48:35;8.20;76.30
1015;DHT22;8170;48.118;11.628;2023-02-11T13:49:49;8.10;76.40
1015;DHT22;8170;48.118;11.628;2023-02-11T13:50:57;8.20;76.80
1015;DHT22;8170;48.118;11.628;2023-02-11T13:52:03;8.20;74.40
1015;DHT22;8170;48.118;11.628;2023-02-11T13:53:07;8.20;75.00
1015;DHT22;8170;48.118;11.628;2023-02-11T13:54:22;8.30;74.30
1015;DHT22;8170;48.118;11.628;2023-02-11T13:55:27;8.20;73.30
1015;DHT22;8170;48.118;11.628;2023-02-11T13:56:32;8.20;73.50
1015;DHT22;8170;48.118;11.628;2023-02-11T13:57:39;8.00;72.20
1015;DHT22;8170;48.118;11.628;2023-02-11T13:58:47;8.00;72.80
1015;DHT22;8170;48.118;11.628;2023-02-11T13:59:51;7.90;72.70
1015;DHT22;8170;48.118;11.628;2023-02-11T14:00:54;7.90;73.50
1015;DHT22;8170;48.118;11.628;2023-02-11T14:02:17;7.80;72.80
1015;DHT22;8170;48.118;11.628;2023-02-11T14:04:17;7.70;72.90
1015;DHT22;8170;48.118;11.628;2023-02-11T14:06:10;7.70;74.00
1015;DHT22;8170;48.118;11.628;2023-02-11T14:07:32;7.60;74.90
1015;DHT22;8170;48.118;11.628;2023-02-11T14:09:08;7.60;75.20
1015;DHT22;8170;48.118;11.628;2023-02-11T14:11:50;7.60;75.70
1015;DHT22;8170;48.118;11.628;2023-02-11T14:13:05;7.70;76.00
1015;DHT22;8170;48.118;11.628;2023-02-11T14:14:21;7.70;75.10
1015;DHT22;8170;48.118;11.628;2023-02-11T14:15:26;7.70;74.50
1015;DHT22;8170;48.118;11.628;2023-02-11T14:16:30;7.70;75.10
1015;DHT22;8170;48.118;11.628;2023-02-11T14:17:39;7.80;76.20
1015;DHT22;8170;48.118;11.628;2023-02-11T14:18:59;7.80;75.10
1015;DHT22;8170;48.118;11.628;2023-02-11T14:22:01;7.90;76.00
1015;DHT22;8170;48.118;11.628;2023-02-11T14:23:03;7.80;75.50
1015;DHT22;8170;48.118;11.628;2023-02-11T14:24:39;7.80;75.30
1015;DHT22;8170;48.118;11.628;2023-02-11T14:25:55;7.80;75.80
1015;DHT22;8170;48.118;11.628;2023-02-11T14:27:05;7.70;75.50
1015;DHT22;8170;48.118;11.628;2023-02-11T14:28:13;7.70;75.60
1015;DHT22;8170;48.118;11.628;2023-02-11T14:29:25;7.70;76.10
1015;DHT22;8170;48.118;11.628;2023-02-11T14:30:44;7.70;75.70
1015;DHT22;8170;48.118;11.628;2023-02-11T14:31:56;7.50;75.30
1015;DHT22;8170;48.118;11.628;2023-02-11T14:33:18;7.50;76.30
1015;DHT22;8170;48.118;11.628;2023-02-11T14:34:42;7.60;76.50
1015;DHT22;8170;48.118;11.628;2023-02-11T14:35:58;7.60;76.60
1015;DHT22;8170;48.118;11.628;2023-02-11T14:37:13;7.60;77.40
1015;DHT22;8170;48.118;11.628;2023-02-11T14:38:25;7.60;76.60
1015;DHT22;8170;48.118;11.628;2023-02-11T14:39:46;7.70;77.20
1015;DHT22;8170;48.118;11.628;2023-02-11T14:40:59;7.60;75.80
1015;DHT22;8170;48.118;11.628;2023-02-11T14:42:04;7.60;76.80
1015;DHT22;8170;48.118;11.628;2023-02-11T14:43:12;7.60;75.80
1015;DHT22;8170;48.118;11.628;2023-02-11T14:44:19;7.60;75.70
1015;DHT22;8170;48.118;11.628;2023-02-11T14:45:25;7.60;75.60
1015;DHT22;8170;48.118;11.628;2023-02-11T14:46:31;7.60;75.70
1015;DHT22;8170;48.118;11.628;2023-02-11T14:47:40;7.70;76.00
1015;DHT22;8170;48.118;11.628;2023-02-11T14:48:46;7.70;75.60
1015;DHT22;8170;48.118;11.628;2023-02-11T14:49:50;7.60;75.40
1015;DHT22;8170;48.118;11.628;2023-02-11T14:50:57;7.70;76.90
1015;DHT22;8170;48.118;11.628;2023-02-11T14:52:12;7.70;76.90
1015;DHT22;8170;48.118;11.628;2023-02-11T14:53:21;7.70;76.50
1015;DHT22;8170;48.118;11.628;2023-02-11T14:54:27;7.80;77.40
1015;DHT22;8170;48.118;11.628;2023-02-11T14:55:33;7.90;76.30
1015;DHT22;8170;48.118;11.628;2023-02-11T14:56:38;7.90;76.30
1015;DHT22;8170;48.118;11.628;2023-02-11T14:57:40;7.90;75.80
1015;DHT22;8170;48.118;11.628;2023-02-11T14:58:46;7.80;76.20
1015;DHT22;8170;48.118;11.628;2023-02-11T14:59:55;7.90;76.20
1015;DHT22;8170;48.118;11.628;2023-02-11T15:01:01;7.80;76.10
1015;DHT22;8170;48.118;11.628;2023-02-11T15:02:20;7.80;76.60
1015;DHT22;8170;48.118;11.628;2023-02-11T15:03:31;7.80;76.80
1015;DHT22;8170;48.118;11.628;2023-02-11T15:04:35;7.70;77.10
1015;DHT22;8170;48.118;11.628;2023-02-11T15:05:38;7.70;76.90
1015;DHT22;8170;48.118;11.628;2023-02-11T15:06:46;7.70;77.60
1015;DHT22;8170;48.118;11.628;2023-02-11T15:07:54;7.80;78.00
1015;DHT22;8170;48.118;11.628;2023-02-11T15:08:59;7.80;78.40
1015;DHT22;8170;48.118;11.628;2023-02-11T15:10:04;7.70;77.60
1015;DHT22;8170;48.118;11.628;2023-02-11T15:11:10;7.60;78.10
1015;DHT22;8170;48.118;11.628;2023-02-11T15:12:16;7.60;78.60
1015;DHT22;8170;48.118;11.628;2023-02-11T15:13:25;7.50;78.80
1015;DHT22;8170;48.118;11.628;2023-02-11T15:14:33;7.50;79.20
1015;DHT22;8170;48.118;11.628;2023-02-11T15:15:38;7.40;79.10
1015;DHT22;8170;48.118;11.628;2023-02-11T15:16:42;7.40;82.40
1015;DHT22;8170;48.118;11.628;2023-02-11T15:17:46;7.40;82.90
1015;DHT22;8170;48.118;11.628;2023-02-11T15:18:50;7.30;81.10
1015;DHT22;8170;48.118;11.628;2023-02-11T15:19:57;7.30;81.70
1015;DHT22;8170;48.118;11.628;2023-02-11T15:21:01;7.20;82.20
1015;DHT22;8170;48.118;11.628;2023-02-11T15:22:06;7.20;84.00
1015;DHT22;8170;48.118;11.628;2023-02-11T15:23:18;7.10;82.80
1015;DHT22;8170;48.118;11.628;2023-02-11T15:24:25;7.20;83.00
1015;DHT22;8170;48.118;11.628;2023-02-11T15:25:29;7.10;83.60
1015;DHT22;8170;48.118;11.628;2023-02-11T15:26:35;7.10;83.70
1015;DHT22;8170;48.118;11.628;2023-02-11T15:27:38;7.10;84.20
1015;DHT22;8170;48.118;11.628;2023-02-11T15:28:46;7.10;84.50
1015;DHT22;8170;48.118;11.628;2023-02-11T15:29:52;7.10;84.90
1015;DHT22;8170;48.118;11.628;2023-02-11T15:30:57;7.10;85.00
1015;DHT22;8170;48.118;11.628;2023-02-11T15:32:05;7.10;85.30
1015;DHT22;8170;48.118;11.628;2023-02-11T15:33:20;7.20;85.80
1015;DHT22;8170;48.118;11.628;2023-02-11T15:34:22;7.20;85.80
1015;DHT22;8170;48.118;11.628;2023-02-11T15:35:27;7.20;85.70
1015;DHT22;8170;48.118;11.628;2023-02-11T15:36:31;7.20;86.50
1015;DHT22;8170;48.118;11.628;2023-02-11T15:37:38;7.20;86.70
1015;DHT22;8170;48.118;11.628;2023-02-11T15:38:42;7.30;86.60
1015;DHT22;8170;48.118;11.628;2023-02-11T15:39:46;7.30;87.80
1015;DHT22;8170;48.118;11.628;2023-02-11T15:40:54;7.20;86.70
1015;DHT22;8170;48.118;11.628;2023-02-11T15:42:17;7.20;87.10
1015;DHT22;8170;48.118;11.628;2023-02-11T15:43:20;7.10;87.70
1015;DHT22;8170;48.118;11.628;2023-02-11T15:44:28;7.10;87.90
1015;DHT22;8170;48.118;11.628;2023-02-11T15:45:32;7.00;88.10
1015;DHT22;8170;48.118;11.628;2023-02-11T15:46:37;7.00;89.00
1015;DHT22;8170;48.118;11.628;2023-02-11T15:47:48;7.00;88.60
1015;DHT22;8170;48.118;11.628;2023-02-11T15:48:52;7.00;89.20